KLKV

Lake County Airport

Lakeview, Oregon, USA
METAR KLKV 220953Z AUTO 34006KT 10SM CLR 07/06 A2997 RMK AO2 SLP620 T00720056
Observed Flight Rules
May-22 @ 09:53 UTC (25 minutes ago) Visual Flight Rules
Wind Visibility Clouds
340° at 6 knots 10 miles
  • Clear skies
Temperatures Readings
Current 7°C / 45°F
Dewpoint 6°C / 43°F
Humidity 93%
Altimeter 29.97" Hg
Pressure 962 hPa
Elevation 1441
METAR KLKV 220953Z AUTO 34006KT 10SM CLR 07/06 A2997 RMK AO2 SLP620 T00720056
Observed Flight Rules
May-22 @ 09:53 UTC
(25 minutes ago)
VFR
Wind Visibility
340° at 6 knots 10 miles
Clouds
  • Clear skies
Temperature Dewpoint
7°C / 45°F 6°C / 43°F
Humidity Altimeter Pressure
93% 29.97" Hg 962 hPa